Weather observations for the past three days for
Rochester - St. Mary's Hospital Heliport
Metric (Imperial)
Date Time (cdt) Wind (kph) Vis. (km) Weather Sky Cond. Temperature (ºC) Relative Humidity Wind Chill (°C) Heat Index (°C) Pressure Precipitation (cm)
Air Dwpt 6 hour altimeter (cm) sea level (mb) 1 hr 3 hr 6 hr
Max. Min.
31 08:35 W 6 16.09 Fair CLR 24.6 21.5 83% 25 75.82 0.0
31 08:15 S 6 16.09 Fair CLR 23.7 22.1 91% 75.77 0.0
31 07:35 SE 6 16.09 Fair CLR 22 0 0% 75.77 0.0
31 07:15 SE 6 16.09 Fair CLR 22 0 0% 75.74 0.0
31 06:55 SE 6 16.09 Fair CLR 22 0 23 21.6 0% 75.74 0.0
31 06:35 SE 6 16.09 Fair CLR 22 0 0% 75.72 0.0
31 06:15 S 7 16.09 Fair CLR 22 0 0% 75.72 0.0
31 05:55 S 11 16.09 Fair CLR 22 0 0% 75.72 0.0
31 05:35 S 9 16.09 Fair CLR 22 0 0% 75.72 0.0
31 05:15 S 7 16.09 Fair CLR 23 0 0% 75.72 0.0
31 04:55 S 15 16.09 Fair CLR 23 0 0% 75.72 0.0
31 04:35 S 17 16.09 Fair CLR 23 0 0% 75.72 0.0
31 03:15 S 13 16.09 Fair CLR 23 0 0% 75.69 0.0
31 02:55 SE 13 16.09 Fair CLR 23 0 0% 75.72 0.0
31 02:35 SE 7 16.09 Fair CLR 23 0 0% 75.74 0.0
31 02:15 SE 7 16.09 Fair CLR 23 0 0% 75.74 0.0
31 01:35 SE 7 16.09 Fair CLR 23 23 100% 75.74 0.0
31 00:55 SE 11 16.09 Fair CLR 22.8 22.7 25.3 22.6 99% 75.77 0.0
31 00:35 SE 11 16.09 Fair CLR 22.9 21.8 94% 75.79 0.0
31 00:15 SE 9 16.09 Fair CLR 22.7 21.2 91% 75.79 0.0
30 23:55 SE 9 16.09 Fair CLR 22.8 20.8 89% 75.79 0.0
30 23:35 SE 11 16.09 Fair CLR 22.8 20.5 87% 75.79 0.0
30 23:15 SE 13 16.09 Fair CLR 22.8 20.3 86% 75.79 0.0
30 22:55 SE 9 16.09 Fair CLR 22.6 20.1 86% 75.79 0.0
30 22:35 SE 13 16.09 Fair CLR 22.7 19.9 84% 75.82 0.0
30 22:15 SE 13 16.09 Fair CLR 23 19.8 82% 75.84 0.0
30 21:55 SE 13 16.09 Fair CLR 23 19.6 81% 75.84 0.0
30 21:35 SE 11 16.09 Fair CLR 23.1 19.5 80% 75.84 0.0
30 21:15 SE 9 16.09 Fair CLR 23.3 19.5 79% 75.87 0.0
30 20:55 SE 15 16.09 Fair CLR 23.5 19.2 77% 75.87 0.0
30 20:35 SE 17 G 28 16.09 Fair CLR 23.6 19 76% 75.84 0.0
30 20:15 SE 19 G 31 16.09 Fair CLR 23.9 18.6 72% 25 75.82 0.0
30 19:55 SE 20 G 31 16.09 Fair CLR 24.2 18.5 71% 25 75.82 0.0
30 19:35 SE 15 G 26 16.09 Fair CLR 24.6 18.8 70% 26 75.82 0.0
30 19:15 S 15 G 31 16.09 Fair CLR 25.1 18.7 68% 26 75.82 0.0
30 18:55 S 20 G 31 16.09 Fair CLR 25.5 18.5 28.9 25.5 65% 27 75.84 0.0
30 18:35 S 17 G 31 16.09 Fair CLR 25.6 18.5 65% 27 75.84 0.0
30 18:15 S 24 G 33 16.09 Fair CLR 26.1 17.8 60% 27 75.84 0.0
30 17:55 S 17 G 33 16.09 Fair CLR 26.5 17.5 58% 27 75.79 0.0
30 17:35 S 13 G 30 16.09 Fair CLR 27 17.8 57% 28 75.79 0.0
30 17:15 S 22 G 31 16.09 Fair CLR 27.5 17.8 56% 28 75.79 0.0
30 16:55 S 22 G 28 16.09 Fair CLR 27.5 18.3 57% 28 75.79 0.0
30 16:35 S 17 16.09 Fair CLR 27.1 17.9 57% 28 75.77 0.0
30 16:15 S 19 G 28 16.09 Fair CLR 27.6 17.9 56% 28 75.77 0.0
30 15:55 S 15 G 37 16.09 Fair CLR 28.4 18.5 55% 29 75.77 0.0
30 15:35 S 20 G 28 16.09 Fair CLR 28.8 18.8 55% 30 75.77 0.0
30 15:15 S 20 16.09 Fair CLR 28.5 18.6 55% 30 75.77 0.0
30 14:55 SE 20 G 28 16.09 Fair CLR 27.9 19 58% 29 75.82 0.0
30 14:35 SE 17 G 28 16.09 Fair CLR 27.8 19.1 59% 29 75.79 0.0
30 14:15 SE 19 G 28 16.09 Fair CLR 27.7 20.2 64% 29 75.79 0.0
30 13:55 SE 17 16.09 Fair CLR 27.7 19.8 62% 29 75.77 0.0
30 13:35 SE 11 16.09 Fair CLR 27.5 19.1 60% 29 75.77 0.0
30 13:15 SE 13 16.09 Fair CLR 27 19.1 62% 28 75.77 0.0
30 12:55 SE 13 16.09 Fair CLR 27.1 18.9 27.1 19.5 61% 28 75.77 0.0
30 12:35 SE 9 16.09 Fair CLR 26.8 18.8 62% 28 75.79 0.0
30 12:15 Calm 16.09 Fair CLR 25.6 19.1 67% 27 75.82 0.0
30 11:55 S 9 16.09 Fair CLR 25.5 19.3 69% 27 75.9 0.0
30 11:35 S 15 16.09 Fair CLR 25.6 19.7 70% 27 75.87 0.0
30 11:15 S 11 16.09 Fair CLR 25.6 19.6 70% 27 75.84 0.0
30 10:55 S 11 16.09 Fair CLR 26 19.5 67% 27 75.79 0.0
30 10:35 SE 7 16.09 Fair CLR 25.6 19.5 69% 27 75.77 0.0
30 10:15 SE 6 16.09 Fair CLR 25.4 19.1 68% 26 75.77 0.0
30 09:55 SW 6 16.09 Fair CLR 25 19.2 70% 26 75.77 0.0
30 09:35 S 6 16.09 Fair CLR 24.2 19.4 75% 25 75.77 0.0
30 09:15 Calm 16.09 Fair CLR 23 20 83% 75.74 0.0
30 08:55 Calm 16.09 Fair CLR 22.6 20.2 86% 75.77 0.0
30 08:35 SE 9 16.09 Fair CLR 21.6 20.8 95% 75.77 0.0
30 08:15 SE 7 16.09 Fair CLR 21 21 100% 75.77 0.0
30 07:55 SE 6 16.09 Fair CLR 20 0 0% 75.77 0.0
30 07:35 SE 7 16.09 Fair CLR 20 0 0% 75.77 0.0
30 07:15 SE 9 16.09 Fair CLR 20 0 0% 75.74 0.0
30 06:55 SE 7 16.09 Fair CLR 20 0 21 19.5 0% 75.77 0.0
30 06:35 SE 7 16.09 Fair CLR 20 0 0% 75.77 0.0
30 06:15 SE 9 16.09 Fair CLR 20 0 0% 75.74 0.0
30 05:55 SE 9 16.09 Fair CLR 20 0 0% 75.74 0.0
30 05:35 SE 11 16.09 Fair CLR 20 0 0% 75.77 0.0
30 05:15 SE 13 16.09 Fair CLR 20 0 0% 75.77 0.0
30 04:55 SE 15 16.09 Fair CLR 20 0 0% 75.77 0.0
30 04:35 SE 17 16.09 Fair CLR 21 0 0% 75.77 0.0
30 04:15 SE 15 16.09 Fair CLR 21 0 0% 75.77 0.0
30 03:55 SE 19 16.09 Fair CLR 21 0 0% 75.74 0.0
30 03:35 SE 15 G 26 16.09 Fair CLR 21 0 0% 75.77 0.0
30 03:15 SE 20 16.09 Fair CLR 21 0 0% 75.77 0.0
30 02:55 SE 17 16.09 Fair CLR 21 0 0% 75.77 0.0
30 02:35 SE 19 16.09 Fair CLR 21 0 0% 75.79 0.0
30 02:15 SE 17 16.09 Fair CLR 21 0 0% 75.79 0.0
30 01:55 SE 15 16.09 Fair CLR 21 0 0% 75.79 0.0
30 01:35 SE 15 16.09 Fair CLR 20 0 0% 75.82 0.0
30 01:15 SE 13 16.09 Fair CLR 21 0 0% 75.84 0.0
30 00:55 SE 13 16.09 Fair CLR 21 0 23.5 20.6 0% 75.84 0.0
29 23:55 SE 13 16.09 Fair CLR 21 20.3 96% 75.87 0.0
29 23:35 SE 13 16.09 Fair CLR 21.1 19.4 90% 75.87 0.0
29 23:15 SE 11 16.09 Fair CLR 21.5 18.9 85% 75.9 0.0
29 22:55 SE 11 16.09 Fair CLR 21.5 18.7 84% 75.92 0.0
29 22:35 SE 17 16.09 Fair CLR 21.5 18.6 84% 75.9 0.0
29 22:15 SE 11 16.09 Fair CLR 21.6 18.4 82% 75.9 0.0
29 21:55 SE 13 16.09 Fair CLR 21.9 18.2 80% 75.92 0.0
29 21:35 SE 11 16.09 Fair CLR 22 18.1 79% 75.92 0.0
29 21:15 SE 9 16.09 Fair CLR 22.1 18 78% 75.92 0.0
29 20:55 SE 11 16.09 Fair CLR 22.2 17.8 76% 75.9 0.0
29 20:35 SE 13 16.09 Fair CLR 22.5 17.6 74% 75.87 0.0
29 20:15 SE 13 16.09 Fair CLR 22.6 17.5 73% 75.87 0.0
29 19:55 S 15 16.09 Fair CLR 22.7 17.4 72% 75.87 0.0
29 19:35 S 15 16.09 Fair CLR 23 17.4 71% 75.87 0.0
29 19:15 SE 11 16.09 Fair CLR 23.3 17.2 69% 75.84 0.0
29 18:55 SE 13 16.09 Fair CLR 23.5 16.9 27 23.4 67% 75.84 0.0
29 18:35 S 15 16.09 Fair CLR 23.5 16.5 65% 75.87 0.0
29 18:15 S 15 G 30 16.09 Fair CLR 23.8 16.2 63% 75.84 0.0
29 17:55 S 17 16.09 Fair CLR 24.2 16 60% 25 75.84 0.0
29 17:35 S 13 G 31 16.09 Fair CLR 24.1 15.6 59% 25 75.84 0.0
29 17:15 S 24 G 33 16.09 Fair CLR 25.3 15.1 53% 26 75.82 0.0
29 16:55 S 20 G 31 16.09 Fair CLR 26.1 14.8 50% 27 75.82 0.0
29 16:35 S 22 G 35 16.09 Fair CLR 26.1 14.9 50% 27 75.84 0.0
29 16:15 S 31 G 43 16.09 Fair CLR 26.6 14.7 48% 27 75.82 0.0
29 15:55 S 24 G 43 16.09 Fair CLR 26.5 15.2 50% 27 75.84 0.0
29 15:35 S 17 G 39 16.09 Fair CLR 26.5 15.1 50% 27 75.84 0.0
29 15:15 S 24 G 39 16.09 Fair CLR 26.6 15.3 50% 27 75.84 0.0
29 14:55 S 22 G 43 16.09 Fair CLR 26.4 15 50% 27 75.87 0.0
29 14:35 S 22 G 41 16.09 Fair CLR 26.8 14.6 47% 27 75.87 0.0
29 14:15 S 22 G 39 16.09 Fair CLR 26.3 15.5 52% 27 75.9 0.0
29 13:55 S 24 G 46 16.09 Fair CLR 25.9 15.2 52% 27 75.92 0.0
29 13:35 S 28 G 43 16.09 Fair CLR 26 15.8 53% 27 75.92 0.0
29 13:15 S 24 G 39 16.09 Fair CLR 25.3 16.5 58% 26 75.95 0.0
29 12:55 SE 22 G 33 16.09 Fair CLR 23.9 17.3 23.9 18.1 67% 25 75.97 0.0 0.1
29 12:35 SE 15 16.09 Fair CLR 22.9 17.6 72% 76 0.0
29 12:15 S 11 16.09 Fair CLR 22 17.4 75% 76.02 0.0
29 11:55 SE 17 G 30 16.09 Partly Cloudy SCT080 21.1 18 83% 76.05 0.0
29 11:35 SE 11 16.09 Mostly Cloudy BKN080 20.4 18.2 87% 76.07 0.0
29 11:15 SE 15 16.09 Overcast OVC090 20 18.6 92% 76.05 0.0
29 10:55 SE 15 16.09 Overcast BKN090 OVC110 19.5 19 97% 76.07 0.0
29 10:35 SE 24 G 33 16.09 Overcast OVC100 19.1 19.1 100% 76.1 0.0
29 09:55 SE 17 G 39 16.09 Mostly Cloudy BKN110 19.1 18.4 96% 76.07 0.0 0.1
29 09:35 SE 22 G 37 16.09 Mostly Cloudy BKN110 19.1 18.6 97% 76.12 0.0
29 09:15 SE 20 G 33 16.09 Partly Cloudy SCT070 19 0 0% 76.15 0.0
29 08:55 SE 19 G 30 16.09 Partly Cloudy SCT070 SCT080 18 0 0% 76.2 0.0
29 08:35 SE 17 G 28 16.09 Partly Cloudy SCT060 18 0 0% 76.23 0.0
29 08:15 S 15 G 28 16.09 Overcast SCT049 BKN060 OVC075 18 0 0% 76.25 0.0
29 07:55 S 17 16.09 Overcast SCT049 BKN060 OVC070 18 0 0% 76.3 0.0 0.1
29 07:35 S 20 G 28 16.09 Overcast OVC080 18 0 0% 76.33 0.0 0.08
29 07:15 S 19 16.09 Overcast BKN080 OVC090 18 0 0% 76.3 0.0 0.03
29 06:55 SE 13 16.09 Overcast SCT070 OVC090 18 0 20 18.1 0% 76.25 0.0 0.25 0.51
29 06:35 S 9 16.09 Overcast SCT065 SCT080 OVC090 18 0 0% 76.33 0.0 0.18
29 06:15 SE 11 11.27 Overcast SCT060 BKN075 OVC090 18 0 0% 76.33 0.0 0.1
29 05:55 SE 9 16.09 Overcast SCT070 BKN075 OVC100 19 0 0% 76.33 0.0 0.18
29 05:35 SE 7 16.09 Overcast OVC100 19 0 0% 76.33 0.0 0.1
29 04:55 S 17 16.09 Overcast BKN090 OVC120 19 18.3 96% 76.3 0.0 0.05
29 04:35 S 17 16.09 Overcast OVC110 19.1 16.5 85% 76.3 0.0
29 04:15 S 17 16.09 Mostly Cloudy BKN100 19.6 16 80% 76.33 0.0
29 03:55 SE 6 16.09 Mostly Cloudy BKN110 19.2 15.7 80% 76.28 0.0
29 03:35 SE 7 16.09 Partly Cloudy SCT110 19.6 15.6 78% 76.25 0.0
29 03:15 SE 11 16.09 Fair CLR 19.5 15.6 78% 76.25 0.0
29 02:55 S 11 16.09 Partly Cloudy SCT045 SCT050 SCT070 19.2 15.6 80% 76.28 0.0
29 02:35 S 17 16.09 Mostly Cloudy BKN120 19.5 15.4 77% 76.28 0.0
29 02:15 SE 15 16.09 Mostly Cloudy BKN120 19.6 15.4 77% 76.33 0.0
29 01:55 SE 9 16.09 Fair CLR 19.3 15.6 79% 76.3 0.0
29 01:35 SE 9 16.09 Fair CLR 19.8 15.4 76% 76.3 0.0
29 01:15 SE 7 16.09 Fair CLR 20 15.3 74% 76.33 0.0
29 00:55 SE 11 16.09 Fair CLR 20 15.3 24 19.7 74% 76.35 0.0
29 00:35 SE 13 16.09 Fair CLR 20 15.5 75% 76.33 0.0
29 00:15 SE 13 16.09 Fair CLR 20 15.5 75% 76.35 0.0
28 23:55 SE 11 16.09 Fair CLR 20 15.5 75% 76.35 0.0
28 23:35 SE 9 16.09 Fair CLR 19.7 15.5 77% 76.38 0.0
28 23:15 SE 7 16.09 Fair CLR 20 15.5 75% 76.35 0.0
28 22:55 SE 7 16.09 Fair CLR 20.2 15.3 74% 76.38 0.0
28 22:35 SE 6 16.09 Fair CLR 20.3 15.2 73% 76.38 0.0
28 22:15 SE 11 16.09 Fair CLR 20.8 15.1 70% 76.38 0.0
28 21:55 SE 7 16.09 Fair CLR 21.1 15 68% 76.38 0.0
28 21:35 SE 7 16.09 Fair CLR 21.2 15 68% 76.4 0.0
28 21:15 SE 7 16.09 Fair CLR 21.3 15.3 69% 76.38 0.0
28 20:55 E 11 16.09 Fair CLR 21.6 15.2 67% 76.38 0.0
28 20:35 SE 11 16.09 Fair CLR 22.1 15 64% 76.38 0.0
28 20:15 SE 11 16.09 Fair CLR 22.5 15 63% 76.38 0.0
28 19:55 SE 7 16.09 Fair CLR 22.8 14.6 60% 76.38 0.0
28 19:35 SE 7 16.09 Fair CLR 23.5 14.4 57% 76.38 0.0
28 19:15 SE 9 16.09 Fair CLR 23.8 13.9 54% 76.38 0.0
28 18:55 SE 7 16.09 Fair CLR 24 13.7 26.5 24 53% 25 76.38 0.0
28 18:35 SE 6 16.09 Fair CLR 24.4 13.5 51% 26 76.4 0.0
28 18:15 SE 7 16.09 Fair CLR 24.7 13.3 49% 26 76.4 0.0
28 17:55 S 7 16.09 Fair CLR 24.9 13 48% 26 76.43 0.0
28 17:35 S 6 16.09 Fair CLR 25 12.7 46% 26 76.43 0.0
28 17:15 S 7 16.09 Fair CLR 25.2 12.5 45% 26 76.43 0.0
28 16:55 Calm 16.09 Fair CLR 25.3 12.4 45% 26 76.43 0.0
28 16:35 SW 6 16.09 Fair CLR 25.3 12.4 45% 26 76.45 0.0
28 16:15 W 7 16.09 Fair CLR 25.5 12.1 43% 26 76.45 0.0
28 15:55 W 11 16.09 Fair CLR 25.5 11.8 42% 26 76.48 0.0
28 15:35 W 17 16.09 Fair CLR 26 11.5 40% 26 76.48 0.0
28 15:15 W 6 16.09 Fair CLR 25.9 11.4 40% 26 76.5 0.0
28 14:55 SW 9 16.09 Fair CLR 25.9 10.6 38% 26 76.48 0.0
28 14:35 SW 11 16.09 Fair CLR 26.4 10 36% 26 76.5 0.0
28 14:15 W 13 16.09 Fair CLR 25.9 9.1 35% 26 76.5 0.0
28 13:55 W 11 16.09 Fair CLR 26.1 8.4 33% 26 76.5 0.0
28 13:35 W 11 G 17 16.09 Fair CLR 25.8 9.1 35% 26 76.53 0.0
28 13:15 W 9 16.09 Fair CLR 25.4 10 38% 26 76.56 0.0
28 12:55 W 13 16.09 Fair CLR 25.1 9.7 25.4 13.8 38% 26 76.58 0.0
28 12:35 W 7 16.09 Fair CLR 24.7 9.4 38% 26 76.61 0.0
28 12:15 SW 7 16.09 Fair CLR 24.5 9.6 39% 25 76.63 0.0
28 11:55 W 15 16.09 Fair CLR 24.3 10.3 41% 25 76.63 0.0
28 11:35 W 15 16.09 Fair CLR 24 10.2 42% 25 76.63 0.0
28 11:15 Calm 16.09 Fair CLR 23.7 11 45% 76.66 0.0
28 10:55 W 9 16.09 Fair CLR 23.2 10.4 44% 76.63 0.0
28 10:35 W 6 16.09 Fair CLR 22.7 10.9 47% 76.63 0.0
28 10:15 Calm 16.09 Fair CLR 21.9 11.7 52% 76.63 0.0
28 09:55 Calm 16.09 Fair CLR 20.9 11.6 55% 76.63 0.0
28 09:35 SW 7 16.09 Fair CLR 20.2 11.2 56% 76.63 0.0
28 09:15 Calm 16.09 Fair CLR 19.3 11.6 61% 76.63 0.0
28 08:55 Calm 16.09 Fair CLR 18.3 11.7 66% 76.63 0.0
Date Time (cdt) Wind (kph) Vis. (km) Weather Sky Cond. Air Dwpt Max. Min. Relative Humidity Wind Chill (°C) Heat Index (°C) altimeter (cm) sea level (mb) 1 hr 3 hr 6 hr
6 hour
Temperature (ºC) Pressure Precipitation (cm)